createdAt,value
2019-01-12T00:00:39.897Z,35.63
2019-01-12T00:03:10.440Z,36.93
2019-01-12T00:05:40.974Z,36.40
2019-01-12T00:08:11.454Z,36.75
2019-01-12T00:10:42.089Z,36.80
2019-01-12T00:13:12.679Z,34.20
2019-01-12T00:15:44.700Z,36.75
2019-01-12T00:18:15.105Z,41.20
2019-01-12T00:20:45.840Z,33.20
2019-01-12T00:23:16.474Z,38.45
2019-01-12T00:25:46.727Z,36.85
2019-01-12T00:28:16.978Z,39.20
2019-01-12T00:30:47.683Z,39.08
2019-01-12T00:33:18.152Z,34.25
2019-01-12T00:35:48.454Z,35.15
2019-01-12T00:38:19.330Z,33.38
2019-01-12T00:40:49.827Z,35.10
2019-01-12T00:43:20.152Z,39.88
2019-01-12T00:45:50.612Z,36.85
2019-01-12T00:48:20.886Z,36.85
2019-01-12T00:50:51.567Z,39.27
2019-01-12T00:53:22.036Z,37.88
2019-01-12T00:55:52.503Z,33.45
2019-01-12T00:58:23.424Z,39.33
2019-01-12T01:00:53.931Z,37.40
2019-01-12T01:03:24.376Z,37.70
2019-01-12T01:05:55.009Z,37.63
2019-01-12T01:08:25.551Z,33.63
2019-01-12T01:10:56.002Z,32.67
2019-01-12T01:13:26.764Z,37.20
2019-01-12T01:15:57.090Z,35.63
2019-01-12T01:18:27.470Z,33.00
2019-01-12T01:20:58.262Z,37.83
2019-01-12T01:23:28.712Z,32.28
2019-01-12T01:25:59.430Z,36.83
2019-01-12T01:28:31.977Z,31.80
2019-01-12T01:31:02.380Z,32.67
2019-01-12T01:33:32.772Z,34.50
2019-01-12T01:36:03.267Z,30.45
2019-01-12T01:38:33.763Z,31.52
2019-01-12T01:41:03.989Z,37.08
2019-01-12T01:43:34.496Z,30.05
2019-01-12T01:46:05.136Z,36.55
2019-01-12T01:48:35.550Z,33.00
2019-01-12T01:51:06.180Z,32.23
2019-01-12T01:53:36.528Z,25.37
2019-01-12T01:56:06.933Z,31.35
2019-01-12T01:58:37.368Z,28.87
2019-01-12T02:01:07.912Z,31.97
2019-01-12T02:03:38.358Z,30.00
2019-01-12T02:06:08.948Z,27.30
2019-01-12T02:08:39.319Z,31.68
2019-01-12T02:11:09.631Z,30.55
2019-01-12T02:13:40.114Z,28.87
2019-01-12T02:16:10.466Z,26.12
2019-01-12T02:18:41.886Z,26.05
2019-01-12T02:21:12.402Z,25.95
2019-01-12T02:23:42.807Z,27.17
2019-01-12T02:26:13.031Z,28.52
2019-01-12T02:28:43.512Z,28.67
2019-01-12T02:31:13.913Z,28.40
2019-01-12T02:33:44.597Z,32.42
2019-01-12T02:36:16.656Z,30.25
2019-01-12T02:38:47.032Z,32.55
2019-01-12T02:41:17.409Z,28.73
2019-01-12T02:43:47.974Z,29.23
2019-01-12T02:46:18.374Z,28.15
2019-01-12T02:48:48.807Z,31.15
2019-01-12T02:51:19.756Z,27.35
2019-01-12T02:53:50.091Z,25.20
2019-01-12T02:56:20.390Z,30.55
2019-01-12T02:58:50.716Z,26.23
2019-01-12T03:01:21.378Z,29.02
2019-01-12T03:03:51.926Z,25.95
2019-01-12T03:06:22.300Z,29.52
2019-01-12T03:08:52.750Z,32.25
2019-01-12T03:11:23.361Z,30.52
2019-01-12T03:13:53.856Z,27.98
2019-01-12T03:16:24.326Z,30.95
2019-01-12T03:18:54.763Z,35.17
2019-01-12T03:21:25.239Z,31.97
2019-01-12T03:23:55.599Z,32.42
2019-01-12T03:26:26.355Z,26.25
2019-01-12T03:28:56.836Z,24.85
2019-01-12T03:31:27.127Z,31.73
2019-01-12T03:33:57.701Z,31.07
2019-01-12T03:36:28.212Z,32.83
2019-01-12T03:38:58.578Z,29.92
2019-01-12T03:41:28.923Z,31.73
2019-01-12T03:43:59.730Z,33.08
2019-01-12T03:46:30.088Z,27.77
2019-01-12T03:49:00.519Z,28.25
2019-01-12T03:51:30.917Z,29.45
2019-01-12T03:54:01.176Z,33.73
2019-01-12T03:56:31.510Z,26.65
2019-01-12T03:59:01.894Z,30.85
2019-01-12T04:01:32.332Z,32.67
2019-01-12T04:04:02.708Z,30.68
2019-01-12T04:06:33.155Z,36.08
2019-01-12T04:09:05.363Z,31.87
2019-01-12T04:11:35.808Z,34.98
2019-01-12T04:14:06.407Z,35.30
2019-01-12T04:16:36.864Z,29.95
2019-01-12T04:19:07.186Z,30.40
2019-01-12T04:21:38.577Z,30.55
2019-01-12T04:24:08.965Z,29.07
2019-01-12T04:26:39.370Z,32.25
2019-01-12T04:29:10.175Z,29.05
2019-01-12T04:31:40.699Z,32.03
2019-01-12T04:34:11.146Z,34.92
2019-01-12T04:36:41.687Z,32.28
2019-01-12T04:39:12.174Z,33.18
2019-01-12T04:41:42.590Z,34.38
2019-01-12T04:44:12.968Z,29.32
2019-01-12T04:46:43.328Z,31.07
2019-01-12T04:49:13.653Z,31.15
2019-01-12T04:51:43.968Z,31.82
2019-01-12T04:54:14.495Z,34.38
2019-01-12T04:56:44.802Z,31.93
2019-01-12T04:59:15.256Z,32.85
2019-01-12T05:01:45.801Z,32.38
2019-01-12T05:04:16.224Z,30.60
2019-01-12T05:06:46.770Z,33.80
2019-01-12T05:09:17.069Z,35.78
2019-01-12T05:11:47.529Z,29.23
2019-01-12T05:14:18.930Z,32.53
2019-01-12T05:16:49.276Z,32.08
2019-01-12T05:19:19.843Z,28.70
2019-01-12T05:21:50.198Z,33.33
2019-01-12T05:24:20.753Z,29.37
2019-01-12T05:26:51.488Z,25.68
2019-01-12T05:29:21.886Z,29.50
2019-01-12T05:31:52.300Z,27.75
2019-01-12T05:34:22.689Z,29.18
2019-01-12T05:36:53.473Z,26.75
2019-01-12T05:39:23.937Z,24.90
2019-01-12T05:41:54.497Z,29.52
2019-01-12T05:44:24.873Z,29.35
2019-01-12T05:46:55.335Z,24.27
2019-01-12T05:49:25.761Z,27.22
2019-01-12T05:51:56.069Z,23.52
2019-01-12T05:54:26.432Z,30.17
2019-01-12T05:56:56.788Z,27.52
2019-01-12T05:59:27.131Z,28.60
2019-01-12T06:01:57.498Z,33.55
2019-01-12T06:04:27.924Z,29.92
2019-01-12T06:06:58.481Z,37.85
2019-01-12T06:09:28.899Z,24.12
2019-01-12T06:11:59.241Z,29.92
2019-01-12T06:14:29.824Z,37.20
2019-01-12T06:17:00.302Z,30.52
2019-01-12T06:19:30.622Z,35.33
2019-01-12T06:22:01.105Z,27.22
2019-01-12T06:24:32.673Z,33.67
2019-01-12T06:27:03.138Z,25.48
2019-01-12T06:29:33.530Z,28.57
2019-01-12T06:32:05.251Z,26.23
2019-01-12T06:34:35.804Z,29.92
2019-01-12T06:37:06.496Z,29.90
2019-01-12T06:39:36.809Z,28.92
2019-01-12T06:42:07.175Z,28.45
2019-01-12T06:44:37.685Z,25.25
2019-01-12T06:47:08.057Z,23.38
2019-01-12T06:49:38.906Z,27.85
2019-01-12T06:52:09.242Z,25.32
2019-01-12T06:54:40.140Z,26.02
2019-01-12T06:57:10.947Z,33.58
2019-01-12T06:59:41.452Z,24.65
2019-01-12T07:02:11.871Z,31.85
2019-01-12T07:04:42.246Z,29.75
2019-01-12T07:07:12.684Z,26.82
2019-01-12T07:09:43.035Z,37.73
2019-01-12T07:12:13.522Z,30.88
2019-01-12T07:14:43.946Z,29.42
2019-01-12T07:17:14.623Z,30.10
2019-01-12T07:19:45.020Z,29.60
2019-01-12T07:22:15.375Z,26.70
2019-01-12T07:24:45.864Z,31.30
2019-01-12T07:27:16.370Z,33.25
2019-01-12T07:29:47.071Z,29.20
2019-01-12T07:32:19.593Z,28.80
2019-01-12T07:34:50.105Z,28.07
2019-01-12T07:37:20.840Z,28.20
2019-01-12T07:39:52.579Z,29.90
2019-01-12T07:42:23.109Z,29.12
2019-01-12T07:44:53.571Z,29.67
2019-01-12T07:47:23.942Z,22.90
2019-01-12T07:49:54.406Z,32.40
2019-01-12T07:52:26.227Z,25.08
2019-01-12T07:54:56.569Z,25.48
2019-01-12T07:57:26.953Z,26.27
2019-01-12T07:59:57.500Z,28.30
2019-01-12T08:02:27.980Z,29.48
2019-01-12T08:04:58.546Z,30.90
2019-01-12T08:07:29.280Z,30.70
2019-01-12T08:09:59.723Z,24.52
2019-01-12T08:12:33.538Z,28.55
2019-01-12T08:15:04.418Z,24.87
2019-01-12T08:17:34.811Z,23.32
2019-01-12T08:20:06.316Z,22.13
2019-01-12T08:22:36.317Z,29.48
2019-01-12T08:25:07.598Z,28.35
2019-01-12T08:27:39.058Z,29.27
2019-01-12T08:30:11.984Z,24.25
2019-01-12T08:32:42.436Z,24.75
2019-01-12T08:35:12.770Z,26.97
2019-01-12T08:37:44.276Z,26.48
2019-01-12T08:40:14.888Z,22.25
2019-01-12T08:42:44.958Z,18.30
2019-01-12T08:45:15.331Z,25.20
2019-01-12T08:47:45.739Z,26.10
2019-01-12T08:50:20.696Z,22.67
2019-01-12T08:52:50.854Z,29.75
2019-01-12T08:55:21.114Z,23.35
2019-01-12T08:57:51.991Z,18.77
2019-01-12T09:00:23.472Z,23.40
2019-01-12T09:02:53.541Z,21.02
2019-01-12T09:05:23.908Z,21.73
2019-01-12T09:07:54.488Z,23.12
2019-01-12T09:10:24.978Z,16.40
2019-01-12T09:12:55.285Z,20.32
2019-01-12T09:15:26.575Z,18.87
2019-01-12T09:17:56.772Z,19.95
2019-01-12T09:20:27.789Z,17.67
2019-01-12T09:22:58.113Z,20.30
2019-01-12T09:25:28.631Z,22.62
2019-01-12T09:27:59.362Z,24.50
2019-01-12T09:30:29.849Z,22.20
2019-01-12T09:33:00.022Z,19.95
2019-01-12T09:35:31.406Z,17.52
2019-01-12T09:38:02.293Z,16.87
2019-01-12T09:40:32.971Z,20.17
2019-01-12T09:43:03.524Z,24.70
2019-01-12T09:45:33.854Z,19.17
2019-01-12T09:48:04.071Z,19.07
2019-01-12T09:50:34.535Z,19.80
2019-01-12T09:53:05.290Z,20.25
2019-01-12T09:55:35.414Z,17.37
2019-01-12T09:58:05.738Z,18.67
2019-01-12T10:00:36.807Z,17.12
2019-01-12T10:03:08.699Z,18.02
2019-01-12T10:05:39.056Z,15.53
2019-01-12T10:08:09.821Z,19.35
2019-01-12T10:10:39.936Z,18.35
2019-01-12T10:13:10.534Z,19.60
2019-01-12T10:15:41.215Z,20.23
2019-01-12T10:18:11.566Z,18.10
2019-01-12T10:20:41.845Z,20.30
2019-01-12T10:23:12.229Z,17.00
2019-01-12T10:25:42.695Z,20.88
2019-01-12T10:28:13.122Z,18.45
2019-01-12T10:30:43.547Z,19.45
2019-01-12T10:33:14.165Z,16.35
2019-01-12T10:35:44.661Z,16.20
2019-01-12T10:38:16.293Z,19.17
2019-01-12T10:40:46.484Z,32.00
2019-01-12T10:43:16.518Z,19.57
2019-01-12T10:45:48.635Z,15.13
2019-01-12T10:48:18.665Z,20.15
2019-01-12T10:50:48.630Z,17.20
2019-01-12T10:53:18.891Z,15.98
2019-01-12T10:55:49.063Z,16.75
2019-01-12T10:58:19.036Z,18.60
2019-01-12T11:00:49.498Z,14.68
2019-01-12T11:03:19.697Z,16.55
2019-01-12T11:05:50.389Z,23.95
2019-01-12T11:08:22.671Z,18.57
2019-01-12T11:10:52.907Z,16.77
2019-01-12T11:13:24.380Z,17.10
2019-01-12T11:15:54.639Z,17.90
2019-01-12T11:18:24.974Z,15.95
2019-01-12T11:20:55.594Z,17.77
2019-01-12T11:23:26.407Z,13.93
2019-01-12T11:25:56.870Z,13.58
2019-01-12T11:28:27.190Z,13.08
2019-01-12T11:30:57.833Z,11.15
2019-01-12T11:33:28.282Z,11.60
2019-01-12T11:35:59.919Z,14.80
2019-01-12T11:38:30.242Z,14.13
2019-01-12T11:41:00.849Z,16.80
2019-01-12T11:43:31.219Z,17.37
2019-01-12T11:46:01.515Z,19.25
2019-01-12T11:48:32.183Z,13.48
2019-01-12T11:51:07.084Z,13.00
2019-01-12T11:53:37.352Z,13.20
2019-01-12T11:56:07.657Z,12.50
2019-01-12T11:58:37.900Z,12.25
2019-01-12T12:01:08.307Z,16.45
2019-01-12T12:03:38.599Z,12.23
2019-01-12T12:06:09.117Z,14.23
2019-01-12T12:08:39.229Z,13.72
2019-01-12T12:11:09.280Z,11.22
2019-01-12T12:13:40.594Z,9.75
2019-01-12T12:16:10.695Z,10.60
2019-01-12T12:18:40.697Z,12.93
2019-01-12T12:21:11.105Z,13.43
2019-01-12T12:23:41.890Z,10.70
2019-01-12T12:26:11.975Z,11.55
2019-01-12T12:28:42.259Z,11.70
2019-01-12T12:31:12.417Z,10.03
2019-01-12T12:33:42.399Z,10.05
2019-01-12T12:36:12.910Z,13.62
2019-01-12T12:38:44.625Z,11.95
2019-01-12T12:41:14.836Z,11.40
2019-01-12T12:43:45.314Z,33.90
2019-01-12T12:46:15.330Z,12.82
2019-01-12T12:48:45.379Z,9.85
2019-01-12T12:51:16.226Z,10.95
2019-01-12T12:53:47.615Z,13.05
2019-01-12T12:56:20.018Z,11.85
2019-01-12T12:58:50.619Z,12.30
2019-01-12T13:01:21.071Z,11.85
2019-01-12T13:03:51.117Z,12.75
2019-01-12T13:06:21.308Z,11.22
2019-01-12T13:08:51.486Z,17.57
2019-01-12T13:11:21.614Z,12.58
2019-01-12T13:13:51.812Z,12.43
2019-01-12T13:16:24.828Z,12.33
2019-01-12T13:18:54.841Z,11.65
2019-01-12T13:21:25.558Z,8.63
2019-01-12T13:23:55.588Z,16.60
2019-01-12T13:26:25.671Z,14.45
2019-01-12T13:28:55.796Z,11.05
2019-01-12T13:31:26.727Z,13.68
2019-01-12T13:33:57.707Z,9.83
2019-01-12T13:36:28.493Z,20.72
2019-01-12T13:38:58.540Z,18.60
2019-01-12T13:41:28.593Z,13.30
2019-01-12T13:43:58.806Z,14.68
2019-01-12T13:46:29.077Z,12.53
2019-01-12T13:48:59.318Z,13.53
2019-01-12T13:51:29.778Z,11.90
2019-01-12T13:53:59.932Z,9.60
2019-01-12T13:56:30.470Z,13.65
2019-01-12T13:59:01.266Z,13.55
2019-01-12T14:01:31.800Z,11.00
2019-01-12T14:04:02.284Z,14.35
2019-01-12T14:06:32.632Z,11.20
2019-01-12T14:09:04.071Z,11.03
2019-01-12T14:11:34.095Z,15.38
2019-01-12T14:14:04.202Z,11.48
2019-01-12T14:16:34.397Z,11.85
2019-01-12T14:19:04.396Z,12.20
2019-01-12T14:21:35.062Z,14.98
2019-01-12T14:24:05.187Z,16.60
2019-01-12T14:26:35.379Z,14.70
2019-01-12T14:29:05.864Z,18.25
2019-01-12T14:31:36.104Z,15.50
2019-01-12T14:34:06.199Z,23.77
2019-01-12T14:36:36.640Z,14.00
2019-01-12T14:39:11.068Z,16.00
2019-01-12T14:41:41.348Z,14.53
2019-01-12T14:44:11.428Z,21.15
2019-01-12T14:46:41.786Z,18.25
2019-01-12T14:49:12.103Z,16.23
2019-01-12T14:51:42.261Z,15.05
2019-01-12T14:54:12.361Z,14.05
2019-01-12T14:56:42.839Z,17.27
2019-01-12T14:59:13.499Z,17.73
2019-01-12T15:01:43.679Z,15.83
2019-01-12T15:04:14.302Z,16.75
2019-01-12T15:06:44.295Z,17.70
2019-01-12T15:09:14.658Z,21.48
2019-01-12T15:11:44.959Z,21.77
2019-01-12T15:14:14.979Z,19.85
2019-01-12T15:16:46.712Z,17.48
2019-01-12T15:19:17.431Z,22.62
2019-01-12T15:21:47.969Z,22.15
2019-01-12T15:24:19.693Z,23.20
2019-01-12T15:26:50.662Z,20.95
2019-01-12T15:29:21.592Z,25.27
2019-01-12T15:31:51.977Z,29.07
2019-01-12T15:34:23.188Z,26.17
2019-01-12T15:36:55.333Z,26.45
2019-01-12T15:39:25.841Z,28.12
2019-01-12T15:41:56.503Z,37.67
2019-01-12T15:44:26.882Z,49.18
2019-01-12T15:46:58.058Z,34.00
2019-01-12T15:49:28.991Z,22.00
2019-01-12T15:51:59.182Z,18.92
2019-01-12T15:54:29.639Z,17.95
2019-01-12T15:57:00.090Z,17.35
2019-01-12T15:59:31.922Z,23.27
2019-01-12T16:02:03.819Z,19.12
2019-01-12T16:04:34.607Z,12.33
2019-01-12T16:07:05.042Z,15.75
2019-01-12T16:09:35.867Z,15.03
2019-01-12T16:12:06.288Z,15.18
2019-01-12T16:14:36.838Z,15.05
2019-01-12T16:17:07.321Z,12.05
2019-01-12T16:19:37.806Z,19.32
2019-01-12T16:22:08.404Z,13.13
2019-01-12T16:24:41.153Z,13.80
2019-01-12T16:27:11.678Z,11.15
2019-01-12T16:29:42.210Z,9.45
2019-01-12T16:32:12.888Z,9.70
2019-01-12T16:34:43.481Z,14.38
2019-01-12T16:37:15.676Z,17.52
2019-01-12T16:39:46.380Z,21.15
2019-01-12T16:42:17.110Z,25.85
2019-01-12T16:44:48.798Z,12.95
2019-01-12T16:47:19.384Z,14.33
2019-01-12T16:49:49.929Z,13.03
2019-01-12T16:52:20.495Z,15.50
2019-01-12T16:54:51.213Z,11.22
2019-01-12T16:57:21.888Z,13.72
2019-01-12T16:59:52.354Z,12.75
2019-01-12T17:02:23.309Z,12.20
2019-01-12T17:04:53.890Z,11.38
2019-01-12T17:07:24.607Z,12.75
2019-01-12T17:09:55.440Z,10.10
2019-01-12T17:12:26.615Z,13.95
2019-01-12T17:14:58.358Z,13.68
2019-01-12T17:17:28.803Z,11.97
2019-01-12T17:19:59.278Z,17.70
2019-01-12T17:22:29.847Z,14.58
2019-01-12T17:25:00.673Z,18.92
2019-01-12T17:27:31.218Z,18.23
2019-01-12T17:30:02.214Z,12.80
2019-01-12T17:32:39.112Z,12.07
2019-01-12T17:35:11.201Z,13.30
2019-01-12T17:37:42.017Z,11.43
2019-01-12T17:40:13.613Z,9.83
2019-01-12T17:42:44.084Z,10.45
2019-01-12T17:45:16.823Z,11.15
2019-01-12T17:47:47.498Z,11.93
2019-01-12T17:50:20.744Z,14.90
2019-01-12T17:52:51.989Z,12.95
2019-01-12T17:55:24.697Z,13.25
2019-01-12T17:57:56.018Z,9.75
2019-01-12T18:00:35.096Z,11.70
2019-01-12T18:03:07.723Z,13.58
2019-01-12T18:05:38.340Z,12.95
2019-01-12T18:08:09.016Z,17.27
2019-01-12T18:10:39.747Z,13.60
2019-01-12T18:13:10.383Z,11.45
2019-01-12T18:15:41.178Z,13.50
2019-01-12T18:18:12.009Z,16.12
2019-01-12T18:20:42.859Z,13.75
2019-01-12T18:23:14.032Z,18.62
2019-01-12T18:25:45.755Z,17.27
2019-01-12T18:28:16.670Z,12.20
2019-01-12T18:30:47.363Z,14.87
2019-01-12T18:33:18.113Z,13.60
2019-01-12T18:35:48.782Z,11.97
2019-01-12T18:38:19.431Z,10.23
2019-01-12T18:40:50.515Z,11.57
2019-01-12T18:43:21.138Z,10.70
2019-01-12T18:45:51.761Z,15.13
2019-01-12T18:48:22.903Z,11.48
2019-01-12T18:50:53.693Z,12.95
2019-01-12T18:53:24.208Z,13.30
2019-01-12T18:55:54.964Z,29.42
2019-01-12T18:58:25.948Z,16.37
2019-01-12T19:00:56.604Z,10.28
2019-01-12T19:03:27.567Z,25.43
2019-01-12T19:05:58.065Z,12.37
2019-01-12T19:08:29.934Z,10.45
2019-01-12T19:11:01.745Z,12.20
2019-01-12T19:13:32.774Z,12.75
2019-01-12T19:16:03.707Z,13.25
2019-01-12T19:18:35.972Z,11.73
2019-01-12T19:21:06.521Z,12.78
2019-01-12T19:23:39.140Z,9.88
2019-01-12T19:26:10.826Z,9.95
2019-01-12T19:28:41.552Z,13.10
2019-01-12T19:31:12.131Z,11.57
2019-01-12T19:33:43.765Z,12.53
2019-01-12T19:36:14.446Z,18.20
2019-01-12T19:38:45.213Z,10.30
2019-01-12T19:41:15.788Z,10.98
2019-01-12T19:43:47.360Z,10.72
2019-01-12T19:46:18.126Z,10.65
2019-01-12T19:48:50.496Z,9.33
2019-01-12T19:51:20.938Z,10.13
2019-01-12T19:53:51.519Z,13.38
2019-01-12T19:56:22.128Z,11.03
2019-01-12T19:58:52.705Z,10.50
2019-01-12T20:01:23.889Z,11.08
2019-01-12T20:03:54.555Z,11.53
2019-01-12T20:06:25.211Z,11.83
2019-01-12T20:08:55.916Z,13.18
2019-01-12T20:11:26.501Z,7.17
2019-01-12T20:13:57.039Z,10.70
2019-01-12T20:16:27.825Z,7.10
2019-01-12T20:18:58.856Z,8.35
2019-01-12T20:21:30.046Z,9.43
2019-01-12T20:24:00.751Z,7.83
2019-01-12T20:26:31.486Z,8.58
2019-01-12T20:29:02.231Z,10.50
2019-01-12T20:31:47.757Z,14.87
2019-01-12T20:34:44.507Z,18.42
2019-01-12T20:38:07.714Z,18.70
2019-01-12T20:41:15.860Z,19.52
2019-01-12T20:43:58.790Z,9.85
2019-01-12T20:46:59.057Z,9.30
2019-01-12T20:49:38.738Z,9.68
2019-01-12T20:53:03.821Z,9.43
2019-01-12T20:55:57.257Z,10.20
2019-01-12T20:59:01.357Z,10.50
2019-01-12T21:01:56.939Z,9.60
2019-01-12T21:05:03.441Z,10.03
2019-01-12T21:07:53.041Z,8.10
2019-01-12T21:10:34.561Z,9.80
2019-01-12T21:13:32.509Z,7.70
2019-01-12T21:16:13.059Z,6.35
2019-01-12T21:18:43.897Z,6.22
2019-01-12T21:21:14.182Z,10.63
2019-01-12T21:23:44.914Z,9.13
2019-01-12T21:26:15.704Z,7.42
2019-01-12T21:28:46.298Z,10.50
2019-01-12T21:31:17.042Z,10.98
2019-01-12T21:33:48.763Z,10.88
2019-01-12T21:36:19.430Z,7.67
2019-01-12T21:38:49.963Z,6.15
2019-01-12T21:41:20.849Z,8.48
2019-01-12T21:43:51.597Z,10.40
2019-01-12T21:46:22.276Z,16.35
2019-01-12T21:48:53.612Z,25.23
2019-01-12T21:51:25.947Z,18.92
2019-01-12T21:53:57.937Z,14.23
2019-01-12T21:56:28.597Z,8.33
2019-01-12T21:58:59.188Z,9.85
2019-01-12T22:01:36.106Z,12.70
2019-01-12T22:04:02.608Z,10.45
2019-01-12T22:06:34.716Z,7.87
2019-01-12T22:09:08.308Z,9.58
2019-01-12T22:11:40.249Z,6.70
2019-01-12T22:14:11.172Z,7.85
2019-01-12T22:16:41.881Z,8.18
2019-01-12T22:19:16.699Z,6.72
2019-01-12T22:21:51.178Z,7.12
2019-01-12T22:24:26.238Z,10.80
2019-01-12T22:27:00.859Z,13.38
2019-01-12T22:29:35.954Z,15.72
2019-01-12T22:32:06.526Z,14.63
2019-01-12T22:34:37.479Z,9.93
2019-01-12T22:37:08.327Z,6.40
2019-01-12T22:39:38.976Z,9.50
2019-01-12T22:42:09.701Z,7.08
2019-01-12T22:44:40.713Z,6.85
2019-01-12T22:47:12.583Z,10.30
2019-01-12T22:49:44.197Z,7.33
2019-01-12T22:52:14.767Z,7.15
2019-01-12T22:54:45.381Z,8.83
2019-01-12T22:57:16.110Z,7.35
2019-01-12T22:59:46.683Z,7.85
2019-01-12T23:02:17.660Z,10.35
2019-01-12T23:04:49.725Z,6.15
2019-01-12T23:07:20.355Z,5.72
2019-01-12T23:09:51.112Z,9.05
2019-01-12T23:12:21.616Z,6.78
2019-01-12T23:14:52.231Z,9.23
2019-01-12T23:17:23.134Z,7.15
2019-01-12T23:19:54.332Z,7.17
2019-01-12T23:22:25.080Z,7.85
2019-01-12T23:24:55.876Z,7.08
2019-01-12T23:27:26.629Z,6.28
2019-01-12T23:30:04.116Z,7.53
2019-01-12T23:32:30.698Z,7.62
2019-01-12T23:35:02.609Z,7.92
2019-01-12T23:37:33.255Z,9.48
2019-01-12T23:40:03.908Z,10.50
2019-01-12T23:42:35.709Z,9.30
2019-01-12T23:45:08.022Z,11.88
2019-01-12T23:47:38.758Z,10.93
2019-01-12T23:50:10.815Z,9.35
2019-01-12T23:52:41.505Z,9.73
2019-01-12T23:55:12.301Z,7.87
2019-01-12T23:57:42.996Z,8.78
